Time;durP1;ratioP1;P1;durP2;ratioP2;P2;SDS_P1;SDS_P2;PMS_P1;PMS_P2;Temp;Humidity;BMP_temperature;BMP_pressure;BME280_temperature;BME280_humidity;BME280_pressure;Samples;Min_cycle;Max_cycle;Signal;HPM_P1;HPM_P2
2022/01/31 00:00:46;;;;;;;13.87;5.70;;;;;;;;;;5034732;28;20262;-92
2022/01/31 00:03:18;;;;;;;7.03;2.80;;;;;;;;;;5035161;28;20293;-91
2022/01/31 00:05:52;;;;;;;6.53;2.80;;;;;;;;;;5032806;28;20226;-91
2022/01/31 00:08:24;;;;;;;8.97;2.87;;;;;;;;;;5030319;28;20192;-90
2022/01/31 00:10:53;;;;;;;5.73;3.23;;;;;;;;;;5024826;28;20210;-91
2022/01/31 00:13:25;;;;;;;15.40;4.27;;;;;;;;;;5021546;28;20205;-92
2022/01/31 00:15:57;;;;;;;5.03;2.70;;;;;;;;;;5018225;28;20219;-92
2022/01/31 00:18:25;;;;;;;9.10;4.03;;;;;;;;;;5018270;28;20201;-91
2022/01/31 00:20:56;;;;;;;15.80;5.87;;;;;;;;;;5017457;28;20231;-91
2022/01/31 00:23:24;;;;;;;12.97;7.03;;;;;;;;;;5017438;28;20207;-91
2022/01/31 00:25:53;;;;;;;13.87;4.03;;;;;;;;;;5017431;28;20204;-92
2022/01/31 00:28:22;;;;;;;4.83;2.83;;;;;;;;;;5017744;28;20221;-91
2022/01/31 00:30:51;;;;;;;9.80;3.77;;;;;;;;;;5016889;28;20235;-91
2022/01/31 00:33:19;;;;;;;23.67;7.10;;;;;;;;;;5017000;28;20200;-91
2022/01/31 00:35:48;;;;;;;17.17;4.20;;;;;;;;;;5016754;28;20207;-91
2022/01/31 00:38:18;;;;;;;9.17;3.30;;;;;;;;;;5017528;28;20267;-92
2022/01/31 00:40:46;;;;;;;13.90;4.03;;;;;;;;;;5017368;28;20239;-92
2022/01/31 00:43:16;;;;;;;13.20;5.43;;;;;;;;;;5017480;28;20232;-92
2022/01/31 00:45:56;;;;;;;8.73;3.47;;;;;;;;;;5016747;28;20232;-91
2022/01/31 00:48:27;;;;;;;16.73;4.00;;;;;;;;;;5016815;28;20250;-92
2022/01/31 00:50:55;;;;;;;14.63;6.07;;;;;;;;;;5016811;28;20227;-91
2022/01/31 00:53:25;;;;;;;14.07;5.17;;;;;;;;;;5017105;28;20291;-91
2022/01/31 00:55:54;;;;;;;17.07;5.07;;;;;;;;;;5016823;28;20340;-91
2022/01/31 00:58:22;;;;;;;10.17;4.83;;;;;;;;;;5017111;28;20235;-91
2022/01/31 01:00:51;;;;;;;12.87;5.00;;;;;;;;;;5015891;28;20224;-91
2022/01/31 01:03:19;;;;;;;4.60;2.73;;;;;;;;;;5016336;28;20259;-90
2022/01/31 01:05:48;;;;;;;8.17;3.53;;;;;;;;;;5016503;28;20215;-91
2022/01/31 01:08:16;;;;;;;20.03;5.97;;;;;;;;;;5017035;28;20211;-92
2022/01/31 01:10:46;;;;;;;13.20;3.67;;;;;;;;;;5016497;28;20206;-92
2022/01/31 01:13:15;;;;;;;8.47;4.97;;;;;;;;;;5016278;28;20215;-90
2022/01/31 01:15:43;;;;;;;8.30;4.07;;;;;;;;;;5016182;28;20221;-90
2022/01/31 01:18:12;;;;;;;11.10;4.67;;;;;;;;;;5017153;28;20199;-91
2022/01/31 01:20:42;;;;;;;15.60;5.67;;;;;;;;;;5016068;28;20242;-89
2022/01/31 01:23:11;;;;;;;13.87;4.90;;;;;;;;;;5015301;28;20267;-90
2022/01/31 01:25:39;;;;;;;25.87;8.20;;;;;;;;;;5015738;28;20268;-89
2022/01/31 01:28:09;;;;;;;12.40;3.00;;;;;;;;;;5015448;28;20226;-90
2022/01/31 01:30:37;;;;;;;23.83;7.63;;;;;;;;;;5015343;28;20235;-89
2022/01/31 01:33:10;;;;;;;24.23;6.73;;;;;;;;;;5015220;28;20218;-89
2022/01/31 01:35:39;;;;;;;14.87;3.93;;;;;;;;;;5015236;28;20238;-90
2022/01/31 01:38:08;;;;;;;21.73;7.33;;;;;;;;;;5015573;28;20227;-89
2022/01/31 01:40:37;;;;;;;23.43;4.10;;;;;;;;;;5015181;28;20207;-88
2022/01/31 01:43:06;;;;;;;21.20;6.17;;;;;;;;;;5015555;28;20205;-89
2022/01/31 01:45:36;;;;;;;14.27;5.40;;;;;;;;;;5015552;28;20231;-88
2022/01/31 01:48:07;;;;;;;9.13;3.97;;;;;;;;;;5015186;28;20211;-88
2022/01/31 01:50:35;;;;;;;19.97;5.80;;;;;;;;;;5015208;28;20201;-89
2022/01/31 01:53:04;;;;;;;14.20;5.70;;;;;;;;;;5015170;28;20211;-88
2022/01/31 01:55:33;;;;;;;11.40;4.83;;;;;;;;;;5015576;28;20210;-88
2022/01/31 01:58:03;;;;;;;5.80;3.53;;;;;;;;;;5015979;28;20213;-88
2022/01/31 02:00:49;;;;;;;10.77;6.17;;;;;;;;;;5016339;28;20231;-89
2022/01/31 02:03:19;;;;;;;10.73;3.73;;;;;;;;;;5019078;28;20227;-88
2022/01/31 02:05:48;;;;;;;7.23;2.97;;;;;;;;;;5017731;28;20207;-89
2022/01/31 02:08:19;;;;;;;10.40;4.23;;;;;;;;;;5016954;28;20204;-89
2022/01/31 02:10:47;;;;;;;9.33;3.73;;;;;;;;;;5016635;28;20196;-89
2022/01/31 02:13:16;;;;;;;11.80;3.40;;;;;;;;;;5016470;28;20209;-89
2022/01/31 02:15:46;;;;;;;12.40;4.40;;;;;;;;;;5016716;28;20204;-89
2022/01/31 02:18:16;;;;;;;14.07;5.93;;;;;;;;;;5016082;28;20215;-89
2022/01/31 02:20:46;;;;;;;6.30;3.10;;;;;;;;;;5015727;28;20232;-89
2022/01/31 02:23:17;;;;;;;5.07;2.53;;;;;;;;;;5015742;28;20224;-89
2022/01/31 02:25:53;;;;;;;9.23;2.77;;;;;;;;;;5016167;28;20219;-89
2022/01/31 02:28:23;;;;;;;11.97;4.13;;;;;;;;;;5016032;28;20207;-89
2022/01/31 02:30:51;;;;;;;9.87;6.33;;;;;;;;;;5015161;28;20219;-89
2022/01/31 02:33:20;;;;;;;5.87;4.30;;;;;;;;;;5015953;28;20216;-89
2022/01/31 02:35:50;;;;;;;12.53;3.57;;;;;;;;;;5016177;28;20204;-89
2022/01/31 02:38:18;;;;;;;7.30;2.97;;;;;;;;;;5016442;28;20225;-89
2022/01/31 02:40:48;;;;;;;14.47;5.00;;;;;;;;;;5016794;28;20212;-90
2022/01/31 02:43:19;;;;;;;10.37;3.40;;;;;;;;;;5016225;28;20293;-90
2022/01/31 02:45:48;;;;;;;14.43;4.63;;;;;;;;;;5016075;28;20271;-90
2022/01/31 02:48:19;;;;;;;8.70;2.90;;;;;;;;;;5015498;28;20207;-91
2022/01/31 02:50:49;;;;;;;11.47;3.93;;;;;;;;;;5015583;28;20221;-91
2022/01/31 02:53:24;;;;;;;13.33;3.73;;;;;;;;;;5015092;28;20259;-91
2022/01/31 02:55:54;;;;;;;12.50;4.97;;;;;;;;;;5019049;28;20206;-92
2022/01/31 02:58:22;;;;;;;14.37;3.30;;;;;;;;;;5018655;28;20207;-92
2022/01/31 03:00:51;;;;;;;11.90;4.60;;;;;;;;;;5018732;28;20208;-92
2022/01/31 03:03:20;;;;;;;8.50;3.87;;;;;;;;;;5019114;28;20238;-92
2022/01/31 03:05:50;;;;;;;19.37;6.07;;;;;;;;;;5019089;28;20213;-92
2022/01/31 03:08:18;;;;;;;6.07;2.40;;;;;;;;;;5018566;28;20204;-92
2022/01/31 03:10:47;;;;;;;8.23;3.17;;;;;;;;;;5018526;28;20243;-92
2022/01/31 03:13:15;;;;;;;15.17;4.23;;;;;;;;;;5019176;28;20261;-91
2022/01/31 03:15:44;;;;;;;8.60;3.33;;;;;;;;;;5018237;28;20254;-91
2022/01/31 03:18:13;;;;;;;9.40;4.57;;;;;;;;;;5019322;28;20201;-91
2022/01/31 03:20:43;;;;;;;11.57;3.50;;;;;;;;;;5018176;28;20236;-92
2022/01/31 03:23:13;;;;;;;13.73;5.50;;;;;;;;;;5018756;28;20540;-91
2022/01/31 03:25:42;;;;;;;9.10;3.50;;;;;;;;;;5018988;28;20203;-92
2022/01/31 03:28:11;;;;;;;37.57;4.80;;;;;;;;;;5018888;28;20203;-91
2022/01/31 03:30:39;;;;;;;14.53;5.23;;;;;;;;;;5018482;28;20209;-91
2022/01/31 03:33:08;;;;;;;12.13;4.30;;;;;;;;;;5018244;28;20207;-91
2022/01/31 03:35:37;;;;;;;22.00;5.90;;;;;;;;;;5018976;28;20210;-90
2022/01/31 03:38:05;;;;;;;17.73;4.50;;;;;;;;;;5018482;28;20248;-90
2022/01/31 03:40:35;;;;;;;7.43;4.13;;;;;;;;;;5019258;28;20203;-91
2022/01/31 03:43:04;;;;;;;10.40;4.00;;;;;;;;;;5018430;28;20220;-91
2022/01/31 03:45:34;;;;;;;21.43;7.67;;;;;;;;;;5019285;28;20217;-91
2022/01/31 03:48:05;;;;;;;20.77;4.40;;;;;;;;;;5018586;28;20219;-90
2022/01/31 03:50:34;;;;;;;21.37;6.07;;;;;;;;;;5019023;28;20215;-90
2022/01/31 03:53:03;;;;;;;19.33;5.57;;;;;;;;;;5018780;28;20254;-91
2022/01/31 03:55:31;;;;;;;19.00;4.97;;;;;;;;;;5018413;28;20207;-91
2022/01/31 03:58:01;;;;;;;10.73;4.03;;;;;;;;;;5018358;28;20208;-90
2022/01/31 04:00:30;;;;;;;5.40;2.63;;;;;;;;;;5018739;28;20211;-90
2022/01/31 04:02:58;;;;;;;16.77;4.37;;;;;;;;;;5017826;28;20294;-91
2022/01/31 04:05:27;;;;;;;10.47;3.33;;;;;;;;;;5017732;28;20267;-91
2022/01/31 04:07:55;;;;;;;9.50;4.40;;;;;;;;;;5017953;28;20204;-91
2022/01/31 04:10:28;;;;;;;9.30;3.27;;;;;;;;;;5017396;28;20267;-91
2022/01/31 04:12:57;;;;;;;19.17;4.37;;;;;;;;;;5017581;28;20211;-91
2022/01/31 04:15:27;;;;;;;19.67;6.57;;;;;;;;;;5018319;28;20204;-91
2022/01/31 04:17:56;;;;;;;16.47;5.70;;;;;;;;;;5018380;28;20204;-91
2022/01/31 04:20:25;;;;;;;17.17;5.07;;;;;;;;;;5017633;28;20223;-91
2022/01/31 04:22:57;;;;;;;14.93;4.97;;;;;;;;;;5018192;28;20236;-91
2022/01/31 04:25:31;;;;;;;10.57;4.20;;;;;;;;;;5017465;28;20207;-92
2022/01/31 04:28:04;;;;;;;11.40;4.43;;;;;;;;;;5017933;28;20216;-91
2022/01/31 04:30:36;;;;;;;13.90;4.00;;;;;;;;;;5020057;28;20217;-90
2022/01/31 04:33:04;;;;;;;15.87;3.83;;;;;;;;;;5019946;28;20200;-90
2022/01/31 04:35:33;;;;;;;14.30;4.30;;;;;;;;;;5017448;28;20212;-88
2022/01/31 04:38:01;;;;;;;10.47;4.27;;;;;;;;;;5017146;28;20211;-88
2022/01/31 04:40:30;;;;;;;21.07;5.93;;;;;;;;;;5016780;28;20219;-89
2022/01/31 04:42:58;;;;;;;17.27;3.10;;;;;;;;;;5017153;28;20275;-90
2022/01/31 04:45:27;;;;;;;14.17;4.40;;;;;;;;;;5016346;28;20234;-87
2022/01/31 04:47:57;;;;;;;14.40;4.13;;;;;;;;;;5016359;28;20207;-89
2022/01/31 04:50:25;;;;;;;13.37;3.50;;;;;;;;;;5015980;28;20214;-88
2022/01/31 04:52:54;;;;;;;9.80;3.23;;;;;;;;;;5015611;28;20242;-89
2022/01/31 04:55:22;;;;;;;10.67;4.83;;;;;;;;;;5015843;28;20262;-88
2022/01/31 04:57:51;;;;;;;11.47;4.40;;;;;;;;;;5015680;28;20203;-88
2022/01/31 05:00:20;;;;;;;9.10;3.23;;;;;;;;;;5015522;28;20227;-88
2022/01/31 05:02:48;;;;;;;13.70;5.50;;;;;;;;;;5015515;28;20228;-88
2022/01/31 05:05:18;;;;;;;12.33;3.40;;;;;;;;;;5016036;28;20238;-91
2022/01/31 05:07:48;;;;;;;0.70;0.70;;;;;;;;;;5015816;28;20215;-89
2022/01/31 05:10:16;;;;;;;0.80;0.80;;;;;;;;;;5016317;28;20286;-90
2022/01/31 05:12:45;;;;;;;0.80;0.80;;;;;;;;;;5015752;28;20234;-89
2022/01/31 05:15:13;;;;;;;0.70;0.70;;;;;;;;;;5016133;28;20230;-90
2022/01/31 05:17:42;;;;;;;0.80;0.80;;;;;;;;;;5015111;28;20230;-89
2022/01/31 05:20:10;;;;;;;0.70;0.70;;;;;;;;;;5015506;28;20250;-89
2022/01/31 05:22:40;;;;;;;0.70;0.70;;;;;;;;;;5015075;28;20215;-88
2022/01/31 05:25:09;;;;;;;0.80;0.80;;;;;;;;;;5015339;28;20199;-89
2022/01/31 05:27:37;;;;;;;0.70;0.70;;;;;;;;;;5015456;28;20258;-89
2022/01/31 05:30:06;;;;;;;0.60;0.60;;;;;;;;;;5015485;28;20232;-90
2022/01/31 05:32:35;;;;;;;9.13;2.73;;;;;;;;;;5015578;28;20201;-90
2022/01/31 05:35:04;;;;;;;13.37;4.17;;;;;;;;;;5015162;28;20211;-88
2022/01/31 05:37:34;;;;;;;15.80;4.93;;;;;;;;;;5014855;28;20243;-89
2022/01/31 05:40:05;;;;;;;13.93;5.07;;;;;;;;;;5015258;28;20254;-89
2022/01/31 05:42:33;;;;;;;17.40;4.13;;;;;;;;;;5015141;28;20207;-89
2022/01/31 05:45:02;;;;;;;6.83;2.63;;;;;;;;;;5015091;28;20231;-88
2022/01/31 05:47:30;;;;;;;15.97;5.90;;;;;;;;;;5015212;28;20199;-86
2022/01/31 05:49:59;;;;;;;15.53;4.87;;;;;;;;;;5015250;28;20231;-88
2022/01/31 05:52:27;;;;;;;6.43;2.87;;;;;;;;;;5014661;28;20265;-88
2022/01/31 05:54:57;;;;;;;20.70;5.77;;;;;;;;;;5014888;28;20225;-88
2022/01/31 05:57:27;;;;;;;20.73;5.23;;;;;;;;;;5014804;28;20242;-87
2022/01/31 05:59:55;;;;;;;16.03;5.43;;;;;;;;;;5015034;28;20204;-87
2022/01/31 06:02:23;;;;;;;11.20;4.33;;;;;;;;;;5014847;28;20243;-87
2022/01/31 06:04:52;;;;;;;15.30;5.03;;;;;;;;;;5014363;28;20220;-87
2022/01/31 06:07:21;;;;;;;21.90;4.20;;;;;;;;;;5014922;28;20265;-87
2022/01/31 06:09:49;;;;;;;10.00;4.13;;;;;;;;;;5014824;28;20613;-87
2022/01/31 06:12:18;;;;;;;17.97;4.63;;;;;;;;;;5014820;28;20208;-87
2022/01/31 06:14:48;;;;;;;15.37;4.67;;;;;;;;;;5014470;28;20216;-87
2022/01/31 06:17:16;;;;;;;15.77;4.40;;;;;;;;;;5015000;28;20231;-87
2022/01/31 06:19:45;;;;;;;10.43;3.80;;;;;;;;;;5015146;28;20206;-87
2022/01/31 06:22:13;;;;;;;14.13;5.63;;;;;;;;;;5015009;28;20236;-87
2022/01/31 06:24:42;;;;;;;18.30;5.57;;;;;;;;;;5014568;28;20286;-90
2022/01/31 06:27:10;;;;;;;24.17;5.93;;;;;;;;;;5016464;28;20262;-90
2022/01/31 06:29:39;;;;;;;27.07;8.27;;;;;;;;;;5017656;28;20215;-90
2022/01/31 06:32:09;;;;;;;15.40;4.30;;;;;;;;;;5019676;28;20207;-87
2022/01/31 06:34:38;;;;;;;20.97;6.80;;;;;;;;;;5019453;28;20204;-89
2022/01/31 06:37:06;;;;;;;21.77;4.93;;;;;;;;;;5019737;28;20200;-90
2022/01/31 06:39:35;;;;;;;23.27;5.40;;;;;;;;;;5019302;28;20208;-89
2022/01/31 06:42:04;;;;;;;21.27;8.30;;;;;;;;;;5019585;28;20204;-89
2022/01/31 06:44:32;;;;;;;37.40;8.90;;;;;;;;;;5019373;28;20227;-90
2022/01/31 06:47:01;;;;;;;18.70;7.10;;;;;;;;;;5019513;28;20207;-89
2022/01/31 06:49:31;;;;;;;25.10;6.97;;;;;;;;;;5022575;28;20219;-87
2022/01/31 06:51:59;;;;;;;15.73;7.27;;;;;;;;;;5024622;28;20216;-88
2022/01/31 06:54:28;;;;;;;16.07;5.77;;;;;;;;;;5024975;28;20205;-88
2022/01/31 06:56:58;;;;;;;20.10;7.17;;;;;;;;;;5022461;28;20219;-88
2022/01/31 06:59:26;;;;;;;27.83;7.07;;;;;;;;;;5019383;28;20215;-89
2022/01/31 07:01:54;;;;;;;19.83;6.67;;;;;;;;;;5019002;28;20204;-88
2022/01/31 07:04:23;;;;;;;32.90;8.77;;;;;;;;;;5019468;28;20238;-88
2022/01/31 07:06:53;;;;;;;24.93;7.70;;;;;;;;;;5020114;28;20208;-88
2022/01/31 07:09:22;;;;;;;27.13;7.77;;;;;;;;;;5020926;28;20290;-89
2022/01/31 07:11:55;;;;;;;27.07;8.53;;;;;;;;;;5023257;28;20208;-90
2022/01/31 07:14:33;;;;;;;32.10;7.17;;;;;;;;;;5025107;28;20294;-90
2022/01/31 07:17:02;;;;;;;14.70;6.47;;;;;;;;;;5023633;28;20258;-89
2022/01/31 07:19:34;;;;;;;54.00;10.27;;;;;;;;;;5023531;28;20214;-89
2022/01/31 07:22:07;;;;;;;17.63;8.00;;;;;;;;;;5020150;28;20238;-86
2022/01/31 07:24:46;;;;;;;21.73;5.00;;;;;;;;;;5020701;28;20234;-89
2022/01/31 07:27:15;;;;;;;33.43;8.10;;;;;;;;;;5023591;28;20207;-89
2022/01/31 07:29:44;;;;;;;19.60;5.27;;;;;;;;;;5024975;28;20211;-88
2022/01/31 07:32:12;;;;;;;25.40;9.30;;;;;;;;;;5023528;28;20250;-89
2022/01/31 07:34:42;;;;;;;22.43;7.67;;;;;;;;;;5022446;28;20207;-89
2022/01/31 07:37:12;;;;;;;30.83;10.60;;;;;;;;;;5022405;28;20204;-88
2022/01/31 07:39:42;;;;;;;34.33;8.87;;;;;;;;;;5020986;28;20250;-89
2022/01/31 07:42:11;;;;;;;16.70;6.30;;;;;;;;;;5021927;28;20211;-88
2022/01/31 07:44:40;;;;;;;27.13;9.93;;;;;;;;;;5020408;28;20224;-89
2022/01/31 07:47:09;;;;;;;34.03;9.37;;;;;;;;;;5020706;28;20200;-89
2022/01/31 07:49:37;;;;;;;33.97;9.03;;;;;;;;;;5020048;28;20242;-89
2022/01/31 07:52:07;;;;;;;33.63;11.50;;;;;;;;;;5022234;28;20213;-89
2022/01/31 07:54:37;;;;;;;37.67;11.60;;;;;;;;;;5021708;28;20208;-89
2022/01/31 07:57:05;;;;;;;39.83;8.17;;;;;;;;;;5018992;28;20207;-89
2022/01/31 07:59:54;;;;;;;33.90;11.77;;;;;;;;;;5021442;28;20264;-90
2022/01/31 08:02:22;;;;;;;31.03;7.07;;;;;;;;;;5020909;28;20208;-90
2022/01/31 08:04:54;;;;;;;33.33;9.83;;;;;;;;;;5021802;28;20234;-90
2022/01/31 08:07:23;;;;;;;45.90;8.53;;;;;;;;;;5021033;28;20200;-89
2022/01/31 08:09:53;;;;;;;31.70;9.70;;;;;;;;;;5020453;28;20292;-89
2022/01/31 08:12:23;;;;;;;17.93;6.90;;;;;;;;;;5022002;28;20195;-89
2022/01/31 08:14:52;;;;;;;36.67;11.87;;;;;;;;;;5018550;28;20196;-87
2022/01/31 08:17:21;;;;;;;37.20;12.07;;;;;;;;;;5017283;28;20274;-89
2022/01/31 08:19:50;;;;;;;27.03;7.87;;;;;;;;;;5018430;28;20211;-88
2022/01/31 08:22:18;;;;;;;39.40;9.50;;;;;;;;;;5016193;28;20236;-88
2022/01/31 08:24:47;;;;;;;38.53;11.70;;;;;;;;;;5016834;28;20227;-88
2022/01/31 08:27:16;;;;;;;24.77;8.30;;;;;;;;;;5015809;28;20250;-87
2022/01/31 08:29:45;;;;;;;35.07;9.73;;;;;;;;;;5014559;28;20308;-86
2022/01/31 08:32:18;;;;;;;22.77;8.23;;;;;;;;;;5015262;28;20208;-84
2022/01/31 08:37:38;;;;;;;30.70;7.97;;;;;;;;;;5012580;28;20208;-88
2022/01/31 08:40:08;;;;;;;40.30;8.87;;;;;;;;;;5011251;28;20211;-88
2022/01/31 08:42:37;;;;;;;13.97;4.83;;;;;;;;;;5020293;28;20212;-89
2022/01/31 08:45:07;;;;;;;36.53;9.30;;;;;;;;;;5020480;28;20223;-90
2022/01/31 08:47:40;;;;;;;20.50;7.97;;;;;;;;;;5015496;28;20242;-90
2022/01/31 08:50:09;;;;;;;50.63;12.30;;;;;;;;;;5018927;28;20216;-89
2022/01/31 08:52:38;;;;;;;45.83;11.53;;;;;;;;;;5027854;28;20219;-88
2022/01/31 08:55:07;;;;;;;29.43;6.87;;;;;;;;;;5023918;28;20219;-88
2022/01/31 08:57:35;;;;;;;38.33;12.60;;;;;;;;;;5018060;28;20204;-88
2022/01/31 09:00:07;;;;;;;39.53;11.53;;;;;;;;;;5014397;28;20211;-87
2022/01/31 09:02:41;;;;;;;37.10;12.97;;;;;;;;;;5010165;28;20233;-86
2022/01/31 09:05:10;;;;;;;35.03;9.67;;;;;;;;;;5016571;28;20222;-87
2022/01/31 09:07:39;;;;;;;37.03;11.40;;;;;;;;;;5014103;28;20230;-88
2022/01/31 09:10:08;;;;;;;38.90;11.07;;;;;;;;;;5011314;28;20246;-87
2022/01/31 09:12:37;;;;;;;44.43;15.60;;;;;;;;;;5011188;28;20216;-87
2022/01/31 09:15:07;;;;;;;45.50;15.47;;;;;;;;;;5007360;28;20215;-87
2022/01/31 09:17:37;;;;;;;35.53;15.30;;;;;;;;;;5013507;28;20215;-88
2022/01/31 09:20:06;;;;;;;57.50;15.63;;;;;;;;;;5012960;28;20211;-89
2022/01/31 09:22:34;;;;;;;48.53;15.90;;;;;;;;;;5009658;28;20246;-87
2022/01/31 09:25:03;;;;;;;49.20;12.80;;;;;;;;;;5012401;28;20231;-88
2022/01/31 09:27:31;;;;;;;51.83;13.10;;;;;;;;;;5013882;28;20227;-92
2022/01/31 09:30:00;;;;;;;44.63;12.53;;;;;;;;;;5013424;28;20254;-88
2022/01/31 09:32:30;;;;;;;42.57;12.90;;;;;;;;;;5013312;28;20254;-90
2022/01/31 09:35:00;;;;;;;47.27;13.53;;;;;;;;;;5013617;28;20231;-89
2022/01/31 09:37:28;;;;;;;47.90;15.70;;;;;;;;;;5014212;28;20342;-90
2022/01/31 09:40:03;;;;;;;35.77;10.70;;;;;;;;;;5016456;28;20220;-89
2022/01/31 09:42:37;;;;;;;36.37;11.73;;;;;;;;;;5013208;28;20237;-90
2022/01/31 09:45:14;;;;;;;26.50;8.07;;;;;;;;;;5013065;28;20272;-87
2022/01/31 09:50:31;;;;;;;30.10;8.43;;;;;;;;;;5008045;28;20277;-89
2022/01/31 09:52:59;;;;;;;31.37;12.20;;;;;;;;;;5012674;28;20208;-90
2022/01/31 09:55:28;;;;;;;22.70;8.83;;;;;;;;;;5204482;22;20239;-89
2022/01/31 09:57:56;;;;;;;32.97;10.10;;;;;;;;;;5023704;28;20227;-89
2022/01/31 10:00:32;;;;;;;24.17;9.47;;;;;;;;;;5028444;28;20223;-89
2022/01/31 10:03:10;;;;;;;38.03;12.63;;;;;;;;;;5032606;28;20249;-89
2022/01/31 10:05:39;;;;;;;42.27;11.90;;;;;;;;;;5043947;28;20233;-89
2022/01/31 10:08:11;;;;;;;45.37;9.73;;;;;;;;;;5058615;28;20225;-88
2022/01/31 10:10:42;;;;;;;38.17;12.70;;;;;;;;;;5062456;28;20214;-89
2022/01/31 10:16:28;;;;;;;32.30;11.47;;;;;;;;;;5046543;28;20253;-87
2022/01/31 10:19:06;;;;;;;47.00;10.90;;;;;;;;;;5053029;28;20232;-87
2022/01/31 10:21:54;;;;;;;48.90;14.83;;;;;;;;;;5055365;28;20238;-88
2022/01/31 10:24:24;;;;;;;35.80;10.10;;;;;;;;;;5050228;28;20225;-88
2022/01/31 10:26:53;;;;;;;41.40;11.50;;;;;;;;;;5050312;28;20233;-88
2022/01/31 10:29:23;;;;;;;39.47;11.43;;;;;;;;;;5052935;28;20229;-84
2022/01/31 10:31:55;;;;;;;39.73;11.70;;;;;;;;;;5051289;28;20222;-87
2022/01/31 10:34:31;;;;;;;54.07;12.47;;;;;;;;;;5049639;28;20213;-87
2022/01/31 10:37:08;;;;;;;54.90;16.43;;;;;;;;;;5053819;28;20210;-88
2022/01/31 10:54:13;;;;;;;38.73;13.33;;;;;;;;;;5055036;28;20219;-89
2022/01/31 10:56:43;;;;;;;41.97;11.27;;;;;;;;;;5055764;28;20268;-87
2022/01/31 10:59:13;;;;;;;26.83;11.00;;;;;;;;;;5055380;28;20203;-87
2022/01/31 11:01:41;;;;;;;37.60;12.10;;;;;;;;;;5054179;28;20222;-86
2022/01/31 11:04:31;;;;;;;38.77;10.27;;;;;;;;;;5053615;28;20229;-88
2022/01/31 11:07:02;;;;;;;43.83;12.13;;;;;;;;;;5054435;28;20218;-86
2022/01/31 11:09:31;;;;;;;37.80;10.03;;;;;;;;;;5050290;28;20233;-88
2022/01/31 11:12:00;;;;;;;41.63;10.50;;;;;;;;;;5045371;28;20254;-87
2022/01/31 11:14:30;;;;;;;35.13;9.97;;;;;;;;;;5049061;28;20237;-88
2022/01/31 11:16:58;;;;;;;35.10;11.77;;;;;;;;;;5049046;28;20345;-86
2022/01/31 11:19:32;;;;;;;46.60;12.50;;;;;;;;;;5053239;28;20207;-88
2022/01/31 11:22:08;;;;;;;60.10;15.20;;;;;;;;;;5046354;28;20218;-87
2022/01/31 11:24:47;;;;;;;48.03;14.43;;;;;;;;;;5053514;28;20214;-89
2022/01/31 11:27:17;;;;;;;38.13;11.20;;;;;;;;;;5049440;28;20218;-85
2022/01/31 11:29:47;;;;;;;47.13;15.37;;;;;;;;;;5046762;28;20320;-86
2022/01/31 11:32:17;;;;;;;36.57;11.93;;;;;;;;;;5049485;28;20248;-86
2022/01/31 11:34:46;;;;;;;56.23;15.23;;;;;;;;;;5051397;28;20290;-87
2022/01/31 11:37:17;;;;;;;61.03;17.40;;;;;;;;;;5048377;28;20223;-90
2022/01/31 11:39:46;;;;;;;42.93;11.43;;;;;;;;;;5042310;28;20293;-86
2022/01/31 11:42:15;;;;;;;55.90;14.43;;;;;;;;;;5041905;28;20255;-86
2022/01/31 11:44:47;;;;;;;49.47;16.30;;;;;;;;;;5043828;28;20290;-87
2022/01/31 11:47:16;;;;;;;33.77;10.80;;;;;;;;;;5043565;28;20333;-86
2022/01/31 11:49:46;;;;;;;37.80;12.53;;;;;;;;;;5055172;28;20288;-85
2022/01/31 11:52:16;;;;;;;52.87;16.17;;;;;;;;;;5052047;28;20280;-87
2022/01/31 11:54:48;;;;;;;52.40;13.27;;;;;;;;;;5048486;28;20218;-86
2022/01/31 11:57:18;;;;;;;39.03;11.03;;;;;;;;;;5049802;28;20230;-86
2022/01/31 11:59:51;;;;;;;28.70;8.40;;;;;;;;;;5052808;28;20249;-86
2022/01/31 12:02:21;;;;;;;49.97;13.40;;;;;;;;;;5050381;28;20229;-87
2022/01/31 12:04:50;;;;;;;59.27;16.63;;;;;;;;;;5048407;28;20330;-87
2022/01/31 12:07:39;;;;;;;40.43;11.20;;;;;;;;;;5054437;28;20230;-86
2022/01/31 12:10:09;;;;;;;37.53;11.83;;;;;;;;;;5050226;28;20260;-88
2022/01/31 12:12:47;;;;;;;28.00;9.83;;;;;;;;;;5051023;28;20234;-86
2022/01/31 12:15:34;;;;;;;42.00;13.73;;;;;;;;;;5051926;28;20225;-85
2022/01/31 12:18:25;;;;;;;41.63;13.83;;;;;;;;;;5045544;28;20268;-86
2022/01/31 12:23:50;;;;;;;29.87;7.60;;;;;;;;;;5049473;28;20301;-86
2022/01/31 12:26:29;;;;;;;45.03;14.53;;;;;;;;;;5049669;28;21119;-88
2022/01/31 12:28:58;;;;;;;48.27;16.77;;;;;;;;;;5047177;28;20308;-86
2022/01/31 12:31:32;;;;;;;38.10;11.67;;;;;;;;;;5046721;28;20222;-85
2022/01/31 12:34:00;;;;;;;27.77;8.97;;;;;;;;;;5039241;28;20242;-86
2022/01/31 12:36:50;;;;;;;36.07;12.20;;;;;;;;;;5047993;28;20264;-87
2022/01/31 12:39:42;;;;;;;40.27;13.87;;;;;;;;;;5044224;28;20214;-86
2022/01/31 12:42:46;;;;;;;45.60;12.57;;;;;;;;;;5051573;28;20271;-87
2022/01/31 12:45:16;;;;;;;28.53;8.47;;;;;;;;;;5045584;28;20577;-86
2022/01/31 12:48:03;;;;;;;35.17;8.30;;;;;;;;;;5042256;28;20227;-82
2022/01/31 12:50:31;;;;;;;41.47;9.00;;;;;;;;;;5046702;28;20220;-91
2022/01/31 12:53:05;;;;;;;19.93;7.37;;;;;;;;;;5041992;28;20261;-90
2022/01/31 12:55:34;;;;;;;37.67;10.97;;;;;;;;;;5051190;28;20222;-89
2022/01/31 12:58:04;;;;;;;45.13;12.53;;;;;;;;;;5040304;28;20226;-89
2022/01/31 13:00:34;;;;;;;48.43;12.87;;;;;;;;;;5055883;28;20235;-90
2022/01/31 13:03:33;;;;;;;39.10;12.50;;;;;;;;;;5056640;28;20234;-89
2022/01/31 13:06:23;;;;;;;43.97;12.03;;;;;;;;;;5057231;28;20264;-89
2022/01/31 13:08:53;;;;;;;40.20;12.67;;;;;;;;;;5046768;28;20230;-87
2022/01/31 13:11:22;;;;;;;22.20;7.00;;;;;;;;;;5043752;28;20225;-87
2022/01/31 13:13:52;;;;;;;41.03;13.37;;;;;;;;;;5049120;28;20242;-89
2022/01/31 13:16:21;;;;;;;31.97;10.67;;;;;;;;;;5047067;28;20217;-91
2022/01/31 13:18:51;;;;;;;42.73;13.50;;;;;;;;;;5049123;28;20256;-89
2022/01/31 13:21:20;;;;;;;35.80;11.00;;;;;;;;;;5043208;28;20222;-88
2022/01/31 13:23:49;;;;;;;27.50;7.73;;;;;;;;;;5042550;28;20239;-89
2022/01/31 13:26:20;;;;;;;35.67;9.87;;;;;;;;;;5044733;28;20230;-91
2022/01/31 13:29:00;;;;;;;41.63;12.23;;;;;;;;;;5047001;28;20221;-90
2022/01/31 13:31:29;;;;;;;39.47;10.20;;;;;;;;;;5047710;28;20237;-90
2022/01/31 13:34:00;;;;;;;30.07;10.27;;;;;;;;;;5052442;28;20222;-91
2022/01/31 13:36:43;;;;;;;41.13;11.37;;;;;;;;;;5047890;28;20314;-90
2022/01/31 13:39:32;;;;;;;32.60;10.03;;;;;;;;;;5040641;28;20228;-88
2022/01/31 13:42:02;;;;;;;36.10;10.50;;;;;;;;;;5050718;28;20226;-88
2022/01/31 13:44:33;;;;;;;34.37;11.57;;;;;;;;;;5042332;28;20252;-88
2022/01/31 13:47:03;;;;;;;43.57;11.93;;;;;;;;;;5047570;28;20243;-89
2022/01/31 13:49:39;;;;;;;46.47;11.27;;;;;;;;;;5042153;28;20251;-88
2022/01/31 13:52:13;;;;;;;29.77;8.27;;;;;;;;;;5046014;28;20302;-87
2022/01/31 13:54:42;;;;;;;25.40;7.80;;;;;;;;;;5051054;28;20209;-88
2022/01/31 13:57:14;;;;;;;31.30;9.00;;;;;;;;;;5038337;28;20247;-87
2022/01/31 14:00:00;;;;;;;22.87;6.57;;;;;;;;;;5020783;28;20248;-89
2022/01/31 14:02:29;;;;;;;23.50;6.90;;;;;;;;;;5022738;28;20225;-87
2022/01/31 14:04:58;;;;;;;21.07;6.80;;;;;;;;;;5026303;28;20224;-87
2022/01/31 14:07:27;;;;;;;48.07;11.10;;;;;;;;;;5025204;28;20239;-86
2022/01/31 14:09:56;;;;;;;36.23;9.67;;;;;;;;;;5023801;28;20223;-88
2022/01/31 14:12:25;;;;;;;24.37;7.07;;;;;;;;;;5016643;28;20227;-87
2022/01/31 14:14:54;;;;;;;22.93;7.67;;;;;;;;;;5005111;28;20233;-87
2022/01/31 14:17:29;;;;;;;29.17;10.17;;;;;;;;;;5002066;28;20220;-89
2022/01/31 14:20:02;;;;;;;27.43;9.53;;;;;;;;;;5009561;28;20214;-86
2022/01/31 14:22:38;;;;;;;32.57;8.13;;;;;;;;;;5013675;28;20250;-87
2022/01/31 14:25:10;;;;;;;36.57;10.60;;;;;;;;;;5011361;28;20234;-87
2022/01/31 14:27:49;;;;;;;27.77;8.53;;;;;;;;;;5009094;28;20238;-86
2022/01/31 14:30:20;;;;;;;25.30;8.10;;;;;;;;;;5016424;28;20244;-88
2022/01/31 14:33:04;;;;;;;27.23;8.17;;;;;;;;;;5014676;28;20303;-87
2022/01/31 14:35:34;;;;;;;35.47;10.80;;;;;;;;;;5010906;28;20247;-87
2022/01/31 14:38:10;;;;;;;33.10;7.37;;;;;;;;;;5015312;28;20247;-89
2022/01/31 14:49:21;;;;;;;26.57;8.87;;;;;;;;;;5016990;28;20325;-86
2022/01/31 14:51:51;;;;;;;26.20;8.20;;;;;;;;;;5020554;28;20238;-93
2022/01/31 14:54:20;;;;;;;18.20;7.27;;;;;;;;;;5011378;28;20232;-90
2022/01/31 14:56:52;;;;;;;25.33;8.30;;;;;;;;;;5006912;28;20244;-89
2022/01/31 14:59:24;;;;;;;28.50;8.90;;;;;;;;;;5004935;28;20233;-88
2022/01/31 15:01:53;;;;;;;19.87;6.73;;;;;;;;;;5002463;28;20221;-88
2022/01/31 15:04:43;;;;;;;24.60;7.30;;;;;;;;;;5012400;28;20297;-89
2022/01/31 15:07:13;;;;;;;18.83;7.23;;;;;;;;;;5018106;28;20371;-90
2022/01/31 15:09:42;;;;;;;20.83;7.00;;;;;;;;;;5020928;28;20229;-90
2022/01/31 15:12:11;;;;;;;22.30;6.23;;;;;;;;;;5013152;28;20234;-89
2022/01/31 15:14:40;;;;;;;28.33;10.17;;;;;;;;;;5009419;28;20228;-89
2022/01/31 15:17:09;;;;;;;28.67;8.40;;;;;;;;;;5017022;28;20228;-89
2022/01/31 15:19:37;;;;;;;43.80;10.93;;;;;;;;;;5019466;28;20227;-89
2022/01/31 15:22:08;;;;;;;30.87;9.10;;;;;;;;;;5017437;28;20224;-88
2022/01/31 15:24:37;;;;;;;22.47;8.27;;;;;;;;;;5011798;28;20249;-89